Aviation Digital Data Service (ADDS)

Output produced by METARs form (1738 UTC 27 May 2017)
found at http://www.aviationweather.gov/adds/metars/
 
KBID 271656Z AUTO 30007KT 10SM OVC034 17/10 A2989 RMK AO2 SLP126 T01670100
KUUU 271653Z AUTO VRB06KT 10SM FEW030 OVC040 17/11 A2987 RMK AO2 SLP114 T01720111
KOQU 271650Z 13008KT 15SM BKN038 17/10 A2987
KSFZ 271656Z AUTO 04005KT 10SM BKN033 18/11 A2987 RMK AO2 SLP134 T01780106
KPVD 271651Z 33004KT 10SM BKN040 BKN250 19/11 A2987 RMK AO2 SLP115 T01890106
KPVD 271720Z 2718/2818 16006KT P6SM BKN035 
     FM280200 17005KT P6SM SCT050 
     FM280700 17004KT P6SM BKN015 
     FM281400 17005KT P6SM BKN035
       
KWST 271653Z AUTO 00000KT 10SM OVC035 18/10 A2989 RMK AO2 SLP119 T01830100 $